createdAt,value
2017-11-07T00:00:56.750Z,6.90
2017-11-07T00:03:24.234Z,6.90
2017-11-07T00:05:52.456Z,7.00
2017-11-07T00:08:19.943Z,7.00
2017-11-07T00:10:47.427Z,7.10
2017-11-07T00:13:15.785Z,7.20
2017-11-07T00:15:43.267Z,7.10
2017-11-07T00:18:11.503Z,7.10
2017-11-07T00:20:39.078Z,7.10
2017-11-07T00:23:06.547Z,7.10
2017-11-07T00:25:34.777Z,6.90
2017-11-07T00:28:02.251Z,6.90
2017-11-07T00:30:29.825Z,6.90
2017-11-07T00:32:57.289Z,6.80
2017-11-07T00:35:25.547Z,6.70
2017-11-07T00:37:53.019Z,6.70
2017-11-07T00:40:20.586Z,6.70
2017-11-07T00:42:48.834Z,6.60
2017-11-07T00:45:16.319Z,6.60
2017-11-07T00:47:44.558Z,6.70
2017-11-07T00:50:12.034Z,6.60
2017-11-07T00:52:39.830Z,6.80
2017-11-07T00:55:07.306Z,6.90
2017-11-07T00:57:34.774Z,7.00
2017-11-07T01:00:02.329Z,7.10
2017-11-07T01:02:29.801Z,7.10
2017-11-07T01:04:57.286Z,7.10
2017-11-07T01:07:24.793Z,7.10
2017-11-07T01:09:52.318Z,7.10
2017-11-07T01:12:20.550Z,7.20
2017-11-07T01:14:48.029Z,7.10
2017-11-07T01:17:15.501Z,7.10
2017-11-07T01:19:43.729Z,7.10
2017-11-07T01:22:11.198Z,7.00
2017-11-07T01:24:38.668Z,7.00
2017-11-07T01:27:06.150Z,7.10
2017-11-07T01:29:34.461Z,7.10
2017-11-07T01:32:01.979Z,7.00
2017-11-07T01:34:29.534Z,7.10
2017-11-07T01:36:57.011Z,7.10
2017-11-07T01:39:25.281Z,7.20
2017-11-07T01:41:52.823Z,7.10
2017-11-07T01:44:20.286Z,7.10
2017-11-07T01:46:48.516Z,7.20
2017-11-07T01:49:15.982Z,7.10
2017-11-07T01:51:43.445Z,7.20
2017-11-07T01:54:10.934Z,7.20
2017-11-07T01:56:39.164Z,7.20
2017-11-07T01:59:06.653Z,7.20
2017-11-07T02:01:34.118Z,7.20
2017-11-07T02:04:01.670Z,7.20
2017-11-07T02:06:29.141Z,7.10
2017-11-07T02:08:57.392Z,7.10
2017-11-07T02:11:25.688Z,7.10
2017-11-07T02:13:54.058Z,7.10
2017-11-07T02:16:21.530Z,7.00
2017-11-07T02:18:49.771Z,7.10
2017-11-07T02:21:17.240Z,7.10
2017-11-07T02:23:44.806Z,7.10
2017-11-07T02:26:12.271Z,7.20
2017-11-07T02:28:40.539Z,7.10
2017-11-07T02:31:08.015Z,7.10
2017-11-07T02:33:36.275Z,7.10
2017-11-07T02:36:04.543Z,7.10
2017-11-07T02:38:32.001Z,7.10
2017-11-07T02:40:59.481Z,7.20
2017-11-07T02:43:27.711Z,7.10
2017-11-07T02:45:55.236Z,7.00
2017-11-07T02:48:22.718Z,7.00
2017-11-07T02:50:50.195Z,7.00
2017-11-07T02:53:17.661Z,7.00
2017-11-07T02:55:45.216Z,7.00
2017-11-07T02:58:13.493Z,7.00
2017-11-07T03:00:41.049Z,7.00
2017-11-07T03:03:08.509Z,7.00
2017-11-07T03:05:36.075Z,6.90
2017-11-07T03:08:03.631Z,6.90
2017-11-07T03:10:31.089Z,7.00
2017-11-07T03:12:59.349Z,7.00
2017-11-07T03:15:26.930Z,7.00
2017-11-07T03:17:55.169Z,7.10
2017-11-07T03:20:22.647Z,7.00
2017-11-07T03:22:50.109Z,7.00
2017-11-07T03:25:17.570Z,7.00
2017-11-07T03:27:45.841Z,6.90
2017-11-07T03:30:13.303Z,6.90
2017-11-07T03:32:41.569Z,6.90
2017-11-07T03:35:09.034Z,6.80
2017-11-07T03:37:36.597Z,6.90
2017-11-07T03:40:04.831Z,6.90
2017-11-07T03:42:32.290Z,6.90
2017-11-07T03:44:59.824Z,6.90
2017-11-07T03:47:27.338Z,6.70
2017-11-07T03:49:55.576Z,6.70
2017-11-07T03:52:23.044Z,6.70
2017-11-07T03:54:50.506Z,6.70
2017-11-07T03:57:17.979Z,6.60
2017-11-07T03:59:45.438Z,6.60
2017-11-07T04:02:12.900Z,6.60
2017-11-07T04:04:40.371Z,6.60
2017-11-07T04:07:08.622Z,6.70
2017-11-07T04:09:36.151Z,6.60
2017-11-07T04:12:03.618Z,6.70
2017-11-07T04:14:31.179Z,6.60
2017-11-07T04:16:58.763Z,6.40
2017-11-07T04:19:26.216Z,6.40
2017-11-07T04:21:53.770Z,6.50
2017-11-07T04:24:21.236Z,6.50
2017-11-07T04:26:49.469Z,6.60
2017-11-07T04:29:17.098Z,6.50
2017-11-07T04:31:44.563Z,6.60
2017-11-07T04:34:12.021Z,6.60
2017-11-07T04:36:39.582Z,6.70
2017-11-07T04:39:07.037Z,6.70
2017-11-07T04:41:34.550Z,6.60
2017-11-07T04:44:02.026Z,6.60
2017-11-07T04:46:30.365Z,6.50
2017-11-07T04:48:57.925Z,6.40
2017-11-07T04:51:25.417Z,6.40
2017-11-07T04:53:53.649Z,6.30
2017-11-07T04:56:21.125Z,6.20
2017-11-07T04:58:48.573Z,6.20
2017-11-07T05:01:16.153Z,6.20
2017-11-07T05:03:43.711Z,6.30
2017-11-07T05:06:11.957Z,6.30
2017-11-07T05:08:39.427Z,6.20
2017-11-07T05:11:06.877Z,6.20
2017-11-07T05:13:34.366Z,6.20
2017-11-07T05:16:02.589Z,6.10
2017-11-07T05:18:30.057Z,6.10
2017-11-07T05:20:57.537Z,6.10
2017-11-07T05:23:25.001Z,6.10
2017-11-07T05:25:53.226Z,6.20
2017-11-07T05:28:20.702Z,6.10
2017-11-07T05:30:48.161Z,6.20
2017-11-07T05:33:15.624Z,6.30
2017-11-07T05:35:43.209Z,6.20
2017-11-07T05:38:10.665Z,6.20
2017-11-07T05:40:38.895Z,6.20
2017-11-07T05:43:06.394Z,6.10
2017-11-07T05:45:34.662Z,6.20
2017-11-07T05:48:02.129Z,6.10
2017-11-07T05:50:30.349Z,6.20
2017-11-07T05:52:57.855Z,6.10
2017-11-07T05:55:25.321Z,6.20
2017-11-07T05:57:53.547Z,6.20
2017-11-07T06:00:21.039Z,6.10
2017-11-07T06:02:48.598Z,6.10
2017-11-07T06:05:16.161Z,6.10
2017-11-07T06:07:43.641Z,6.10
2017-11-07T06:10:11.878Z,6.00
2017-11-07T06:12:39.441Z,5.90
2017-11-07T06:15:06.914Z,5.90
2017-11-07T06:17:35.139Z,5.90
2017-11-07T06:20:02.608Z,5.80
2017-11-07T06:22:30.102Z,5.90
2017-11-07T06:24:58.477Z,5.90
2017-11-07T06:27:26.800Z,6.00
2017-11-07T06:29:54.254Z,5.90
2017-11-07T06:32:21.721Z,6.00
2017-11-07T06:34:49.207Z,6.00
2017-11-07T06:37:16.773Z,6.00
2017-11-07T06:39:44.222Z,6.00
2017-11-07T06:42:11.703Z,6.00
2017-11-07T06:44:39.926Z,6.10
2017-11-07T06:47:07.410Z,6.00
2017-11-07T06:49:34.871Z,6.00
2017-11-07T06:52:02.428Z,6.10
2017-11-07T06:54:29.886Z,6.10
2017-11-07T06:56:57.401Z,6.20
2017-11-07T06:59:24.873Z,6.20
2017-11-07T07:01:52.329Z,6.20
2017-11-07T07:04:19.807Z,6.30
2017-11-07T07:06:47.266Z,6.30
2017-11-07T07:09:14.746Z,6.30
2017-11-07T07:11:42.969Z,6.40
2017-11-07T07:14:10.429Z,6.30
2017-11-07T07:16:37.917Z,6.40
2017-11-07T07:19:05.477Z,6.40
2017-11-07T07:21:32.950Z,6.50
2017-11-07T07:24:01.190Z,6.60
2017-11-07T07:26:28.647Z,6.50
2017-11-07T07:28:56.136Z,6.70
2017-11-07T07:31:23.614Z,6.90
2017-11-07T07:33:51.151Z,7.30
2017-11-07T07:36:19.411Z,7.80
2017-11-07T07:38:46.869Z,7.80
2017-11-07T07:41:14.340Z,7.90
2017-11-07T07:43:41.811Z,7.90
2017-11-07T07:46:10.033Z,8.20
2017-11-07T07:48:37.496Z,8.10
2017-11-07T07:51:05.076Z,8.20
2017-11-07T07:53:32.567Z,8.20
2017-11-07T07:56:00.789Z,7.90
2017-11-07T07:58:28.255Z,7.90
2017-11-07T08:00:55.713Z,7.90
2017-11-07T08:03:24.682Z,7.90
2017-11-07T08:05:52.161Z,7.90
2017-11-07T08:08:19.613Z,8.10
2017-11-07T08:10:47.183Z,8.10
2017-11-07T08:13:14.638Z,8.10
2017-11-07T08:15:42.106Z,8.20
2017-11-07T08:18:09.557Z,8.20
2017-11-07T08:20:37.188Z,8.20
2017-11-07T08:23:04.658Z,8.30
2017-11-07T08:25:32.232Z,8.70
2017-11-07T08:27:59.694Z,8.80
2017-11-07T08:30:27.252Z,8.90
2017-11-07T08:32:54.704Z,9.00
2017-11-07T08:35:22.258Z,9.00
2017-11-07T08:37:51.225Z,9.30
2017-11-07T08:40:18.689Z,9.30
2017-11-07T08:42:46.165Z,9.90
2017-11-07T08:45:13.623Z,10.60
2017-11-07T08:47:41.088Z,11.10
2017-11-07T08:50:08.549Z,11.00
2017-11-07T08:52:36.794Z,10.60
2017-11-07T08:55:04.369Z,10.50
2017-11-07T08:57:31.853Z,10.30
2017-11-07T09:00:00.116Z,10.60
2017-11-07T09:02:28.373Z,10.90
2017-11-07T09:04:55.933Z,10.90
2017-11-07T09:07:23.406Z,11.30
2017-11-07T09:09:51.641Z,11.80
2017-11-07T09:12:19.110Z,11.70
2017-11-07T09:14:46.587Z,11.50
2017-11-07T09:17:14.910Z,10.50
2017-11-07T09:19:42.422Z,10.40
2017-11-07T09:22:09.970Z,10.20
2017-11-07T09:24:37.534Z,10.20
2017-11-07T09:27:04.994Z,10.30
2017-11-07T09:29:32.549Z,10.60
2017-11-07T09:32:00.777Z,10.80
2017-11-07T09:34:28.255Z,10.70
2017-11-07T09:36:55.726Z,11.10
2017-11-07T09:39:23.197Z,11.40
2017-11-07T09:41:51.485Z,13.30
2017-11-07T09:44:19.718Z,14.20
2017-11-07T09:46:47.197Z,14.20
2017-11-07T09:49:14.765Z,14.80
2017-11-07T09:51:42.229Z,15.70
2017-11-07T09:54:10.491Z,16.80
2017-11-07T09:56:39.480Z,17.50
2017-11-07T09:59:08.120Z,18.50
2017-11-07T10:01:35.586Z,18.40
2017-11-07T10:04:03.055Z,19.60
2017-11-07T10:06:30.538Z,19.80
2017-11-07T10:08:58.089Z,19.70
2017-11-07T10:11:25.654Z,19.80
2017-11-07T10:13:53.215Z,20.60
2017-11-07T10:16:20.674Z,20.70
2017-11-07T10:18:48.161Z,19.70
2017-11-07T10:21:16.396Z,19.00
2017-11-07T10:23:43.961Z,18.90
2017-11-07T10:26:11.514Z,19.40
2017-11-07T10:28:39.086Z,19.80
2017-11-07T10:31:06.545Z,19.80
2017-11-07T10:33:34.022Z,19.60
2017-11-07T10:36:02.252Z,18.10
2017-11-07T10:38:29.733Z,18.10
2017-11-07T10:40:57.205Z,17.30
2017-11-07T10:43:25.440Z,17.60
2017-11-07T10:45:52.901Z,17.50
2017-11-07T10:48:20.470Z,17.70
2017-11-07T10:50:48.750Z,17.10
2017-11-07T10:53:16.219Z,17.00
2017-11-07T10:55:44.450Z,17.10
2017-11-07T10:58:11.993Z,17.10
2017-11-07T11:00:42.076Z,18.10
2017-11-07T11:03:10.692Z,19.20
2017-11-07T11:05:38.446Z,19.20
2017-11-07T11:08:05.995Z,19.00
2017-11-07T11:10:33.519Z,18.40
2017-11-07T11:13:00.973Z,18.10
2017-11-07T11:15:28.539Z,17.70
2017-11-07T11:17:56.048Z,17.40
2017-11-07T11:20:23.550Z,16.30
2017-11-07T11:22:51.768Z,14.40
2017-11-07T11:25:19.246Z,14.30
2017-11-07T11:27:46.741Z,13.60
2017-11-07T11:30:14.285Z,13.20
2017-11-07T11:32:41.746Z,12.90
2017-11-07T11:35:09.313Z,12.70
2017-11-07T11:37:36.866Z,12.30
2017-11-07T11:40:05.102Z,12.10
2017-11-07T11:42:32.598Z,12.10
2017-11-07T11:45:00.067Z,12.20
2017-11-07T11:47:27.533Z,12.00
2017-11-07T11:49:55.780Z,11.50
2017-11-07T11:52:23.267Z,11.50
2017-11-07T11:54:51.509Z,11.30
2017-11-07T11:57:18.977Z,11.20
2017-11-07T11:59:46.560Z,11.10
2017-11-07T12:02:14.806Z,11.00
2017-11-07T12:04:42.365Z,10.90
2017-11-07T12:07:09.925Z,11.00
2017-11-07T12:09:38.905Z,11.10
2017-11-07T12:12:06.484Z,11.10
2017-11-07T12:14:34.029Z,11.00
2017-11-07T12:17:01.507Z,11.10
2017-11-07T12:19:29.786Z,11.20
2017-11-07T12:21:58.018Z,11.10
2017-11-07T12:24:25.561Z,11.10
2017-11-07T12:26:53.057Z,11.20
2017-11-07T12:29:20.621Z,11.20
2017-11-07T12:31:48.085Z,11.00
2017-11-07T12:34:15.553Z,11.00
2017-11-07T12:36:43.780Z,11.10
2017-11-07T12:39:11.257Z,11.10
2017-11-07T12:41:38.719Z,11.30
2017-11-07T12:44:06.297Z,11.30
2017-11-07T12:46:34.562Z,11.10
2017-11-07T12:49:02.030Z,11.00
2017-11-07T12:51:42.123Z,11.00
2017-11-07T12:54:09.585Z,11.00
2017-11-07T12:56:37.098Z,11.00
2017-11-07T12:59:05.365Z,11.20
2017-11-07T13:01:32.841Z,11.20
2017-11-07T13:04:00.313Z,11.20
2017-11-07T13:06:27.828Z,11.30
2017-11-07T13:08:55.304Z,11.40
2017-11-07T13:11:23.551Z,11.20
2017-11-07T13:13:51.029Z,11.20
2017-11-07T13:16:19.288Z,11.10
2017-11-07T13:18:46.778Z,11.10
2017-11-07T13:21:15.021Z,10.80
2017-11-07T13:23:42.501Z,10.80
2017-11-07T13:26:10.813Z,10.70
2017-11-07T13:28:38.277Z,10.70
2017-11-07T13:31:05.737Z,10.80
2017-11-07T13:33:33.206Z,10.90
2017-11-07T13:36:00.687Z,10.90
2017-11-07T13:38:28.245Z,10.90
2017-11-07T13:40:55.743Z,10.90
2017-11-07T13:43:23.214Z,10.90
2017-11-07T13:45:50.692Z,10.80
2017-11-07T13:48:18.155Z,10.90
2017-11-07T13:50:45.627Z,10.70
2017-11-07T13:53:13.086Z,10.80
2017-11-07T13:55:40.558Z,11.10
2017-11-07T13:58:08.833Z,10.70
2017-11-07T14:00:37.083Z,10.60
2017-11-07T14:03:04.564Z,10.50
2017-11-07T14:05:32.812Z,10.50
2017-11-07T14:08:00.290Z,10.40
2017-11-07T14:10:27.841Z,10.50
2017-11-07T14:12:55.306Z,10.40
2017-11-07T14:15:22.786Z,10.40
2017-11-07T14:17:50.309Z,10.50
2017-11-07T14:20:17.777Z,10.50
2017-11-07T14:22:46.026Z,10.50
2017-11-07T14:25:13.493Z,10.40
2017-11-07T14:27:40.978Z,10.40
2017-11-07T14:30:09.274Z,10.40
2017-11-07T14:32:36.801Z,10.30
2017-11-07T14:35:04.272Z,10.40
2017-11-07T14:37:32.535Z,10.60
2017-11-07T14:40:00.778Z,10.50
2017-11-07T14:42:28.245Z,10.50
2017-11-07T14:44:55.712Z,10.50
2017-11-07T14:47:23.181Z,10.40
2017-11-07T14:49:51.410Z,10.30
2017-11-07T14:52:18.879Z,10.20
2017-11-07T14:54:46.341Z,10.30
2017-11-07T14:57:13.919Z,10.20
2017-11-07T14:59:41.428Z,10.20
2017-11-07T15:02:09.034Z,10.20
2017-11-07T15:04:36.511Z,10.10
2017-11-07T15:07:04.732Z,10.20
2017-11-07T15:09:32.207Z,10.20
2017-11-07T15:11:59.669Z,10.20
2017-11-07T15:14:27.229Z,10.20
2017-11-07T15:16:54.756Z,10.10
2017-11-07T15:19:22.221Z,10.10
2017-11-07T15:21:49.716Z,10.10
2017-11-07T15:24:17.205Z,10.10
2017-11-07T15:26:44.730Z,10.10
2017-11-07T15:29:12.213Z,10.10
2017-11-07T15:31:39.670Z,10.00
2017-11-07T15:34:07.138Z,10.10
2017-11-07T15:36:34.614Z,10.10
2017-11-07T15:39:02.084Z,10.00
2017-11-07T15:41:29.566Z,9.90
2017-11-07T15:43:57.030Z,9.90
2017-11-07T15:46:24.488Z,9.90
2017-11-07T15:48:51.950Z,9.80
2017-11-07T15:51:20.194Z,9.70
2017-11-07T15:53:47.765Z,9.70
2017-11-07T15:56:15.224Z,9.80
2017-11-07T15:58:42.672Z,9.80
2017-11-07T16:01:10.141Z,9.90
2017-11-07T16:03:37.585Z,9.90
2017-11-07T16:06:05.049Z,9.80
2017-11-07T16:08:32.510Z,9.80
2017-11-07T16:10:59.960Z,9.80
2017-11-07T16:13:27.513Z,9.70
2017-11-07T16:15:55.036Z,9.70
2017-11-07T16:18:22.499Z,9.80
2017-11-07T16:20:49.953Z,9.80
2017-11-07T16:23:17.415Z,9.80
2017-11-07T16:25:44.869Z,9.90
2017-11-07T16:28:12.389Z,9.80
2017-11-07T16:30:40.818Z,9.80
2017-11-07T16:33:08.402Z,9.70
2017-11-07T16:35:35.863Z,9.80
2017-11-07T16:38:03.326Z,9.80
2017-11-07T16:40:30.869Z,9.80
2017-11-07T16:42:59.874Z,9.80
2017-11-07T16:45:27.421Z,9.80
2017-11-07T16:47:54.890Z,9.70
2017-11-07T16:50:23.862Z,9.80
2017-11-07T16:52:51.338Z,9.70
2017-11-07T16:55:18.792Z,9.80
2017-11-07T16:57:46.371Z,9.90
2017-11-07T17:00:14.684Z,9.80
2017-11-07T17:02:42.145Z,9.80
2017-11-07T17:05:10.108Z,9.90
2017-11-07T17:07:37.818Z,9.80
2017-11-07T17:10:05.290Z,9.90
2017-11-07T17:12:33.564Z,9.80
2017-11-07T17:15:01.019Z,9.70
2017-11-07T17:17:29.241Z,9.90
2017-11-07T17:19:56.709Z,9.80
2017-11-07T17:22:24.246Z,9.80
2017-11-07T17:24:51.841Z,9.80
2017-11-07T17:27:19.309Z,9.80
2017-11-07T17:29:46.778Z,9.70
2017-11-07T17:32:15.025Z,9.90
2017-11-07T17:34:42.552Z,9.90
2017-11-07T17:37:10.025Z,10.00
2017-11-07T17:39:37.479Z,9.90
2017-11-07T17:42:04.945Z,9.90
2017-11-07T17:44:32.410Z,9.90
2017-11-07T17:46:59.875Z,9.90
2017-11-07T17:49:27.347Z,9.80
2017-11-07T17:51:54.822Z,9.70
2017-11-07T17:54:23.036Z,9.70
2017-11-07T17:56:50.563Z,9.70
2017-11-07T17:59:18.029Z,9.70
2017-11-07T18:01:45.578Z,9.80
2017-11-07T18:04:13.120Z,9.80
2017-11-07T18:06:41.353Z,9.90
2017-11-07T18:09:08.833Z,9.80
2017-11-07T18:11:37.247Z,9.90
2017-11-07T18:14:05.471Z,9.80
2017-11-07T18:16:32.938Z,9.80
2017-11-07T18:19:00.401Z,9.70
2017-11-07T18:21:27.854Z,9.60
2017-11-07T18:23:55.419Z,9.70
2017-11-07T18:26:23.745Z,9.80
2017-11-07T18:28:51.247Z,9.70
2017-11-07T18:31:18.802Z,9.70
2017-11-07T18:33:46.261Z,9.80
2017-11-07T18:36:13.734Z,9.70
2017-11-07T18:38:42.001Z,9.70
2017-11-07T18:41:10.239Z,9.80
2017-11-07T18:43:37.754Z,9.70
2017-11-07T18:46:05.987Z,9.80
2017-11-07T18:48:33.582Z,9.80
2017-11-07T18:51:01.816Z,9.70
2017-11-07T18:53:29.328Z,9.70
2017-11-07T18:55:56.785Z,9.70
2017-11-07T18:58:24.317Z,9.80
2017-11-07T19:00:52.543Z,9.90
2017-11-07T19:03:20.049Z,9.90
2017-11-07T19:05:47.509Z,9.90
2017-11-07T19:08:15.016Z,10.00
2017-11-07T19:10:42.474Z,9.90
2017-11-07T19:13:10.027Z,9.90
2017-11-07T19:15:37.486Z,9.90
2017-11-07T19:18:05.003Z,9.90
2017-11-07T19:20:33.245Z,9.80
2017-11-07T19:23:00.723Z,9.80
2017-11-07T19:25:28.183Z,9.80
2017-11-07T19:27:55.641Z,9.80
2017-11-07T19:30:23.192Z,9.80
2017-11-07T19:32:50.654Z,9.90
2017-11-07T19:35:18.122Z,9.80
2017-11-07T19:37:46.350Z,9.70
2017-11-07T19:40:14.652Z,9.70
2017-11-07T19:42:42.113Z,9.80
2017-11-07T19:45:10.403Z,9.70
2017-11-07T19:47:38.631Z,9.70
2017-11-07T19:50:06.090Z,9.70
2017-11-07T19:52:33.553Z,9.80
2017-11-07T19:55:01.027Z,9.70
2017-11-07T19:57:28.584Z,9.70
2017-11-07T19:59:56.119Z,9.60
2017-11-07T20:02:23.663Z,9.60
2017-11-07T20:04:51.164Z,9.60
2017-11-07T20:07:18.628Z,9.70
2017-11-07T20:09:46.218Z,9.80
2017-11-07T20:12:13.688Z,9.90
2017-11-07T20:14:41.230Z,9.90
2017-11-07T20:17:08.759Z,9.80
2017-11-07T20:19:36.366Z,9.70
2017-11-07T20:22:03.858Z,9.70
2017-11-07T20:24:31.422Z,9.70
2017-11-07T20:26:58.934Z,9.80
2017-11-07T20:29:26.393Z,9.90
2017-11-07T20:31:53.855Z,9.90
2017-11-07T20:34:21.326Z,9.80
2017-11-07T20:36:48.821Z,9.90
2017-11-07T20:39:16.365Z,9.90
2017-11-07T20:41:43.947Z,9.80
2017-11-07T20:44:11.401Z,9.80
2017-11-07T20:46:39.635Z,9.80
2017-11-07T20:49:07.101Z,9.70
2017-11-07T20:51:34.614Z,9.80
2017-11-07T20:54:02.074Z,9.80
2017-11-07T20:56:29.545Z,9.80
2017-11-07T20:58:57.033Z,9.80
2017-11-07T21:01:24.501Z,9.90
2017-11-07T21:03:52.074Z,9.90
2017-11-07T21:06:19.536Z,9.90
2017-11-07T21:08:47.820Z,9.80
2017-11-07T21:11:16.061Z,9.80
2017-11-07T21:13:43.530Z,9.80
2017-11-07T21:16:11.094Z,9.90
2017-11-07T21:18:38.556Z,9.80
2017-11-07T21:21:06.799Z,10.00
2017-11-07T21:23:34.262Z,9.90
2017-11-07T21:26:01.842Z,9.90
2017-11-07T21:28:29.395Z,10.00
2017-11-07T21:30:56.872Z,10.00
2017-11-07T21:33:25.120Z,10.00
2017-11-07T21:35:52.680Z,9.90
2017-11-07T21:38:22.040Z,10.10
2017-11-07T21:40:49.519Z,10.10
2017-11-07T21:43:17.094Z,10.00
2017-11-07T21:45:44.553Z,9.90
2017-11-07T21:48:12.122Z,9.90
2017-11-07T21:50:39.585Z,10.00
2017-11-07T21:53:07.054Z,10.10
2017-11-07T21:55:35.300Z,10.00
2017-11-07T21:58:02.856Z,10.00
2017-11-07T22:00:32.721Z,10.00
2017-11-07T22:03:00.202Z,10.00
2017-11-07T22:05:27.666Z,10.00
2017-11-07T22:07:55.172Z,10.00
2017-11-07T22:10:23.405Z,9.80
2017-11-07T22:12:50.881Z,9.80
2017-11-07T22:15:18.337Z,9.90
2017-11-07T22:17:51.539Z,9.90
2017-11-07T22:20:18.994Z,10.00
2017-11-07T22:22:47.217Z,10.10
2017-11-07T22:25:16.549Z,10.00
2017-11-07T22:27:44.022Z,10.00
2017-11-07T22:30:12.269Z,10.10
2017-11-07T22:32:39.735Z,10.00
2017-11-07T22:35:07.258Z,10.10
2017-11-07T22:37:34.718Z,10.10
2017-11-07T22:40:02.203Z,10.10
2017-11-07T22:42:29.665Z,10.00
2017-11-07T22:44:57.239Z,10.00
2017-11-07T22:47:24.794Z,10.00
2017-11-07T22:49:52.354Z,10.10
2017-11-07T22:52:19.809Z,10.10
2017-11-07T22:54:47.281Z,10.10
2017-11-07T22:57:15.514Z,10.20
2017-11-07T22:59:42.998Z,10.10
2017-11-07T23:02:10.559Z,10.20
2017-11-07T23:04:42.007Z,10.20
2017-11-07T23:07:09.559Z,10.20
2017-11-07T23:09:37.025Z,10.10
2017-11-07T23:12:04.573Z,10.10
2017-11-07T23:14:32.047Z,10.00
2017-11-07T23:16:59.513Z,10.00
2017-11-07T23:19:27.733Z,9.90
2017-11-07T23:21:55.210Z,9.80
2017-11-07T23:24:22.678Z,9.90
2017-11-07T23:26:50.155Z,9.90
2017-11-07T23:29:18.383Z,10.00
2017-11-07T23:31:45.865Z,9.90
2017-11-07T23:34:13.326Z,9.90
2017-11-07T23:36:40.788Z,9.90
2017-11-07T23:39:08.245Z,9.90
2017-11-07T23:41:35.794Z,9.80
2017-11-07T23:44:03.324Z,9.90
2017-11-07T23:46:30.814Z,9.90
2017-11-07T23:48:58.363Z,9.90
2017-11-07T23:51:25.929Z,9.90
2017-11-07T23:53:56.229Z,10.00
2017-11-07T23:56:23.692Z,9.80
2017-11-07T23:58:51.299Z,9.90
